createdAt,value
2023-03-08T00:01:22.550Z,99309.44
2023-03-08T00:03:57.711Z,99315.75
2023-03-08T00:06:27.166Z,99308.84
2023-03-08T00:08:59.439Z,99319.28
2023-03-08T00:11:27.325Z,99324.81
2023-03-08T00:13:55.427Z,99328.13
2023-03-08T00:16:22.507Z,99336.06
2023-03-08T00:18:49.396Z,99334.22
2023-03-08T00:21:18.422Z,99334.31
2023-03-08T00:23:46.653Z,99328.63
2023-03-08T00:26:14.491Z,99344.91
2023-03-08T00:28:41.901Z,99339.13
2023-03-08T00:31:12.338Z,99339.38
2023-03-08T00:33:40.029Z,99346.25
2023-03-08T00:36:18.925Z,99348.91
2023-03-08T00:38:47.688Z,99344.28
2023-03-08T00:41:15.328Z,99337.84
2023-03-08T00:43:43.353Z,99352.28
2023-03-08T00:46:11.088Z,99349.50
2023-03-08T00:48:38.892Z,99357.88
2023-03-08T00:51:06.210Z,99356.84
2023-03-08T00:53:33.653Z,99359.34
2023-03-08T00:56:01.563Z,99363.81
2023-03-08T00:58:31.575Z,99358.97
2023-03-08T01:00:59.936Z,99358.38
2023-03-08T01:03:28.196Z,99350.53
2023-03-08T01:05:58.108Z,99358.47
2023-03-08T01:08:27.103Z,99363.38
2023-03-08T01:10:58.550Z,99356.69
2023-03-08T01:13:32.902Z,99372.75
2023-03-08T01:16:01.016Z,99372.38
2023-03-08T01:18:28.537Z,99375.91
2023-03-08T01:21:03.109Z,99377.72
2023-03-08T01:23:31.613Z,99383.66
2023-03-08T01:26:07.871Z,99376.34
2023-03-08T01:28:35.504Z,99377.63
2023-03-08T01:31:10.723Z,99384.75
2023-03-08T01:33:41.053Z,99379.69
2023-03-08T01:36:11.803Z,99388.41
2023-03-08T01:38:39.038Z,99369.13
2023-03-08T01:41:08.587Z,99372.72
2023-03-08T01:43:38.625Z,99381.91
2023-03-08T01:46:19.506Z,99389.38
2023-03-08T01:49:22.880Z,99386.16
2023-03-08T01:51:53.944Z,99394.28
2023-03-08T01:54:31.474Z,99388.19
2023-03-08T01:57:17.455Z,99392.03
2023-03-08T01:59:47.300Z,99385.56
2023-03-08T02:02:14.444Z,99384.97
2023-03-08T02:04:41.685Z,99391.06
2023-03-08T02:07:12.467Z,99395.09
2023-03-08T02:09:40.899Z,99396.13
2023-03-08T02:12:13.320Z,99400.00
2023-03-08T02:14:43.731Z,99400.00
2023-03-08T02:17:11.604Z,99397.56
2023-03-08T02:20:20.618Z,99398.75
2023-03-08T02:22:50.012Z,99396.34
2023-03-08T02:25:24.153Z,99397.50
2023-03-08T02:27:53.336Z,99391.66
2023-03-08T02:30:32.823Z,99386.75
2023-03-08T02:32:59.935Z,99399.94
2023-03-08T02:35:29.981Z,99406.25
2023-03-08T02:37:57.124Z,99392.88
2023-03-08T02:40:25.275Z,99404.19
2023-03-08T02:42:53.558Z,99425.53
2023-03-08T02:45:20.844Z,99416.00
2023-03-08T02:47:47.872Z,99407.31
2023-03-08T02:50:15.802Z,99420.31
2023-03-08T02:52:42.809Z,99407.53
2023-03-08T02:55:10.106Z,99415.03
2023-03-08T02:57:37.268Z,99420.31
2023-03-08T03:00:06.596Z,99403.06
2023-03-08T03:02:34.496Z,99402.44
2023-03-08T03:05:05.540Z,99403.06
2023-03-08T03:07:36.389Z,99399.00
2023-03-08T03:10:05.570Z,99409.34
2023-03-08T03:12:32.729Z,99415.25
2023-03-08T03:15:05.495Z,99397.56
2023-03-08T03:17:32.556Z,99406.09
2023-03-08T03:19:59.791Z,99407.91
2023-03-08T03:22:28.027Z,99412.97
2023-03-08T03:24:55.233Z,99405.66
2023-03-08T03:27:22.545Z,99401.78
2023-03-08T03:29:49.794Z,99409.25
2023-03-08T03:32:17.926Z,99408.00
2023-03-08T03:34:45.294Z,99416.50
2023-03-08T03:37:13.018Z,99421.00
2023-03-08T03:39:41.446Z,99425.63
2023-03-08T03:42:11.314Z,99425.63
2023-03-08T03:44:44.266Z,99440.00
2023-03-08T03:47:16.510Z,99440.00
2023-03-08T03:49:45.021Z,99444.03
2023-03-08T03:52:13.919Z,99444.03
2023-03-08T03:54:45.599Z,99454.38
2023-03-08T03:57:12.789Z,99453.50
2023-03-08T03:59:42.419Z,99455.13
2023-03-08T04:02:09.698Z,99454.09
2023-03-08T04:04:42.235Z,99457.34
2023-03-08T04:07:13.176Z,99452.06
2023-03-08T04:09:45.252Z,99459.53
2023-03-08T04:12:16.104Z,99457.63
2023-03-08T04:14:44.333Z,99458.59
2023-03-08T04:17:13.352Z,99467.53
2023-03-08T04:19:50.280Z,99466.75
2023-03-08T04:22:18.252Z,99469.38
2023-03-08T04:24:50.055Z,99461.44
2023-03-08T04:27:22.359Z,99475.41
2023-03-08T04:29:49.457Z,99475.13
2023-03-08T04:32:16.879Z,99463.16
2023-03-08T04:34:51.192Z,99466.16
2023-03-08T04:37:21.962Z,99468.59
2023-03-08T04:39:53.591Z,99469.75
2023-03-08T04:42:20.564Z,99474.38
2023-03-08T04:44:48.522Z,99467.06
2023-03-08T04:47:19.633Z,99473.59
2023-03-08T04:49:46.734Z,99469.09
2023-03-08T04:52:13.676Z,99471.97
2023-03-08T04:54:42.464Z,99466.47
2023-03-08T04:57:19.825Z,99464.03
2023-03-08T04:59:49.233Z,99468.31
2023-03-08T05:02:16.955Z,99463.91
2023-03-08T05:04:46.076Z,99457.66
2023-03-08T05:09:54.293Z,99463.66
2023-03-08T05:12:21.389Z,99468.56
2023-03-08T05:14:52.295Z,99454.84
2023-03-08T05:17:20.487Z,99469.66
2023-03-08T05:19:47.730Z,99457.53
2023-03-08T05:22:19.367Z,99453.72
2023-03-08T05:24:50.831Z,99467.56
2023-03-08T05:27:18.888Z,99471.09
2023-03-08T05:29:46.576Z,99480.03
2023-03-08T05:32:14.395Z,99473.78
2023-03-08T05:34:41.665Z,99481.31
2023-03-08T05:37:13.205Z,99472.88
2023-03-08T05:39:42.975Z,99486.06
2023-03-08T05:42:15.616Z,99481.81
2023-03-08T05:44:46.317Z,99486.09
2023-03-08T05:47:16.379Z,99493.84
2023-03-08T05:49:44.331Z,99490.22
2023-03-08T05:52:12.256Z,99494.91
2023-03-08T05:54:40.084Z,99500.81
2023-03-08T05:57:12.025Z,99493.13
2023-03-08T05:59:39.060Z,99492.13
2023-03-08T06:02:08.569Z,99491.97
2023-03-08T06:04:43.464Z,99498.84
2023-03-08T06:07:12.150Z,99498.25
2023-03-08T06:09:43.809Z,99490.78
2023-03-08T06:12:14.761Z,99509.66
2023-03-08T06:14:44.013Z,99505.63
2023-03-08T06:17:12.560Z,99485.16
2023-03-08T06:19:43.692Z,99514.94
2023-03-08T06:22:12.161Z,99508.03
2023-03-08T06:24:39.330Z,99503.38
2023-03-08T06:27:08.375Z,99515.13
2023-03-08T06:29:36.794Z,99512.91
2023-03-08T06:32:04.550Z,99522.00
2023-03-08T06:34:33.014Z,99520.19
2023-03-08T06:37:00.832Z,99511.88
2023-03-08T06:39:31.152Z,99529.72
2023-03-08T06:42:04.490Z,99506.34
2023-03-08T06:44:31.746Z,99513.38
2023-03-08T06:46:58.896Z,99512.50
2023-03-08T06:49:26.467Z,99502.72
2023-03-08T06:51:54.189Z,99521.34
2023-03-08T06:54:22.430Z,99505.88
2023-03-08T06:56:49.338Z,99508.25
2023-03-08T06:59:16.279Z,99513.88
2023-03-08T07:01:43.523Z,99496.78
2023-03-08T07:04:10.720Z,99498.88
2023-03-08T07:06:37.927Z,99489.84
2023-03-08T07:09:06.386Z,99493.59
2023-03-08T07:11:34.297Z,99491.94
2023-03-08T07:14:01.243Z,99498.94
2023-03-08T07:16:28.345Z,99495.63
2023-03-08T07:18:56.926Z,99498.78
2023-03-08T07:21:24.429Z,99489.97
2023-03-08T07:23:53.008Z,99504.59
2023-03-08T07:26:19.944Z,99502.59
2023-03-08T07:28:50.300Z,99491.13
2023-03-08T07:31:17.833Z,99497.97
2023-03-08T07:33:44.754Z,99491.16
2023-03-08T07:36:12.029Z,99486.81
2023-03-08T07:38:39.116Z,99488.13
2023-03-08T07:41:06.343Z,99502.53
2023-03-08T07:43:33.493Z,99499.31
2023-03-08T07:46:08.378Z,99498.34
2023-03-08T07:48:35.366Z,99486.41
2023-03-08T07:51:09.481Z,99501.84
2023-03-08T07:53:39.294Z,99501.69
2023-03-08T07:56:07.181Z,99510.91
2023-03-08T07:58:34.466Z,99519.88
2023-03-08T08:01:01.990Z,99497.94
2023-03-08T08:03:30.080Z,99498.13
2023-03-08T08:05:57.305Z,99501.41
2023-03-08T08:08:24.261Z,99495.91
2023-03-08T08:10:51.237Z,99484.25
2023-03-08T08:13:18.156Z,99485.50
2023-03-08T08:15:45.141Z,99488.25
2023-03-08T08:18:12.152Z,99500.09
2023-03-08T08:20:39.216Z,99493.56
2023-03-08T08:23:07.058Z,99495.41
2023-03-08T08:25:34.195Z,99479.94
2023-03-08T08:28:01.303Z,99484.38
2023-03-08T08:30:28.292Z,99492.75
2023-03-08T08:32:55.224Z,99481.47
2023-03-08T08:35:27.029Z,99483.78
2023-03-08T08:37:58.178Z,99480.38
2023-03-08T08:40:25.866Z,99464.38
2023-03-08T08:42:53.749Z,99481.94
2023-03-08T08:45:20.659Z,99475.66
2023-03-08T08:47:47.722Z,99470.81
2023-03-08T08:50:15.466Z,99471.28
2023-03-08T08:52:42.417Z,99464.75
2023-03-08T08:55:09.802Z,99463.53
2023-03-08T08:57:36.909Z,99455.09
2023-03-08T09:00:09.819Z,99444.56
2023-03-08T09:02:37.148Z,99435.66
2023-03-08T09:05:04.258Z,99427.25
2023-03-08T09:07:31.461Z,99437.53
2023-03-08T09:09:58.370Z,99431.66
2023-03-08T09:12:25.404Z,99426.66
2023-03-08T09:14:52.538Z,99419.25
2023-03-08T09:17:19.481Z,99431.63
2023-03-08T09:19:46.462Z,99410.75
2023-03-08T09:22:13.833Z,99426.50
2023-03-08T09:24:40.965Z,99434.00
2023-03-08T09:27:08.386Z,99432.34
2023-03-08T09:29:36.487Z,99433.91
2023-03-08T09:32:05.959Z,99430.66
2023-03-08T09:34:33.136Z,99429.06
2023-03-08T09:37:00.177Z,99421.59
2023-03-08T09:39:27.522Z,99434.38
2023-03-08T09:42:00.543Z,99430.84
2023-03-08T09:45:05.384Z,99417.22
2023-03-08T09:48:04.804Z,99417.75
2023-03-08T09:50:49.813Z,99412.97
2023-03-08T09:53:40.398Z,99427.16
2023-03-08T09:56:29.478Z,99405.28
2023-03-08T09:59:13.885Z,99412.75
2023-03-08T10:02:06.295Z,99416.75
2023-03-08T10:04:54.808Z,99409.50
2023-03-08T10:07:44.724Z,99390.50
2023-03-08T10:10:46.361Z,99403.16
2023-03-08T10:13:19.639Z,99391.81
2023-03-08T10:15:52.475Z,99394.03
2023-03-08T10:18:43.061Z,99382.16
2023-03-08T10:21:18.566Z,99372.34
2023-03-08T10:23:49.231Z,99378.72
2023-03-08T10:26:17.728Z,99377.59
2023-03-08T10:28:45.170Z,99372.44
2023-03-08T10:31:27.411Z,99380.59
2023-03-08T10:34:20.119Z,99373.16
2023-03-08T10:37:01.991Z,99377.31
2023-03-08T10:39:29.695Z,99386.00
2023-03-08T10:42:00.431Z,99382.81
2023-03-08T10:44:47.170Z,99372.84
2023-03-08T10:47:25.423Z,99378.06
2023-03-08T10:50:20.766Z,99373.00
2023-03-08T10:52:50.714Z,99368.44
2023-03-08T10:55:26.203Z,99364.34
2023-03-08T10:58:01.838Z,99352.72
2023-03-08T11:00:36.560Z,99358.41
2023-03-08T11:03:20.958Z,99349.63
2023-03-08T11:05:58.290Z,99352.56
2023-03-08T11:08:39.702Z,99340.28
2023-03-08T11:11:13.425Z,99336.53
2023-03-08T11:13:45.086Z,99333.84
2023-03-08T11:16:52.530Z,99327.69
2023-03-08T11:19:53.877Z,99334.66
2023-03-08T11:22:57.653Z,99326.34
2023-03-08T11:25:44.947Z,99326.09
2023-03-08T11:28:43.246Z,99322.88
2023-03-08T11:31:19.831Z,99307.38
2023-03-08T11:34:20.150Z,99307.41
2023-03-08T11:36:56.407Z,99300.97
2023-03-08T11:39:33.548Z,99293.22
2023-03-08T11:42:30.005Z,99292.97
2023-03-08T11:45:28.005Z,99286.28
2023-03-08T11:48:25.222Z,99289.22
2023-03-08T11:51:09.209Z,99279.81
2023-03-08T11:54:04.871Z,99280.09
2023-03-08T11:56:46.332Z,99265.38
2023-03-08T11:59:39.715Z,99266.72
2023-03-08T12:02:06.496Z,99261.88
2023-03-08T12:04:55.922Z,99274.41
2023-03-08T12:07:32.713Z,99262.13
2023-03-08T12:10:14.839Z,99260.25
2023-03-08T12:12:50.306Z,99257.88
2023-03-08T12:15:42.449Z,99246.13
2023-03-08T12:18:20.096Z,99250.41
2023-03-08T12:20:48.188Z,99235.19
2023-03-08T12:23:50.604Z,99231.47
2023-03-08T12:26:23.864Z,99222.13
2023-03-08T12:28:59.504Z,99234.41
2023-03-08T12:31:31.163Z,99228.78
2023-03-08T12:34:00.013Z,99237.59
2023-03-08T12:36:44.397Z,99224.78
2023-03-08T12:39:34.417Z,99222.38
2023-03-08T12:42:10.620Z,99222.94
2023-03-08T12:44:39.045Z,99212.25
2023-03-08T12:47:11.979Z,99219.47
2023-03-08T12:49:43.220Z,99207.16
2023-03-08T12:52:19.579Z,99221.84
2023-03-08T12:55:18.519Z,99215.41
2023-03-08T12:57:49.626Z,99219.41
2023-03-08T13:00:37.683Z,99205.50
2023-03-08T13:03:25.336Z,99216.72
2023-03-08T13:05:52.309Z,99208.91
2023-03-08T13:08:36.952Z,99202.78
2023-03-08T13:11:13.476Z,99209.72
2023-03-08T13:13:49.339Z,99208.91
2023-03-08T13:16:23.189Z,99214.25
2023-03-08T13:19:01.844Z,99218.22
2023-03-08T13:21:38.484Z,99216.81
2023-03-08T13:24:34.502Z,99207.41
2023-03-08T13:27:21.731Z,99225.22
2023-03-08T13:29:48.906Z,99218.25
2023-03-08T13:32:19.852Z,99219.28
2023-03-08T13:35:02.293Z,99226.44
2023-03-08T13:37:30.580Z,99224.44
2023-03-08T13:39:59.880Z,99227.28
2023-03-08T13:42:29.499Z,99228.25
2023-03-08T13:45:17.411Z,99223.69
2023-03-08T13:47:46.356Z,99212.47
2023-03-08T13:50:28.469Z,99223.47
2023-03-08T13:52:55.808Z,99228.28
2023-03-08T13:55:52.379Z,99212.75
2023-03-08T13:58:35.592Z,99222.81
2023-03-08T14:01:16.326Z,99224.03
2023-03-08T14:03:45.109Z,99223.16
2023-03-08T14:06:33.652Z,99228.63
2023-03-08T14:09:02.215Z,99229.84
2023-03-08T14:11:38.212Z,99224.75
2023-03-08T14:14:17.618Z,99220.94
2023-03-08T14:16:44.823Z,99232.00
2023-03-08T14:19:14.851Z,99228.47
2023-03-08T14:21:55.887Z,99228.09
2023-03-08T14:24:29.802Z,99217.91
2023-03-08T14:27:02.447Z,99225.53
2023-03-08T14:29:36.286Z,99209.97
2023-03-08T14:32:12.902Z,99212.88
2023-03-08T14:34:46.400Z,99209.59
2023-03-08T14:37:27.918Z,99196.22
2023-03-08T14:40:26.732Z,99203.97
2023-03-08T14:43:19.608Z,99196.41
2023-03-08T14:45:56.806Z,99195.59
2023-03-08T14:48:34.623Z,99196.66
2023-03-08T14:51:18.733Z,99195.06
2023-03-08T14:54:05.670Z,99187.50
2023-03-08T14:56:33.533Z,99193.25
2023-03-08T14:59:03.995Z,99183.28
2023-03-08T15:01:36.912Z,99184.03
2023-03-08T15:04:16.185Z,99191.44
2023-03-08T15:06:44.498Z,99179.38
2023-03-08T15:09:15.959Z,99186.06
2023-03-08T15:11:45.865Z,99177.47
2023-03-08T15:14:13.338Z,99182.47
2023-03-08T15:16:40.847Z,99190.19
2023-03-08T15:19:08.805Z,99188.25
2023-03-08T15:21:37.246Z,99183.69
2023-03-08T15:24:05.967Z,99183.63
2023-03-08T15:26:32.886Z,99171.88
2023-03-08T15:29:03.404Z,99170.28
2023-03-08T15:31:32.042Z,99173.41
2023-03-08T15:33:59.081Z,99171.56
2023-03-08T15:36:26.342Z,99166.19
2023-03-08T15:38:53.628Z,99162.72
2023-03-08T15:41:20.591Z,99158.91
2023-03-08T15:43:47.568Z,99158.84
2023-03-08T15:46:15.796Z,99154.09
2023-03-08T15:48:45.457Z,99140.28
2023-03-08T15:51:19.028Z,99139.91
2023-03-08T15:53:47.035Z,99143.50
2023-03-08T15:56:13.914Z,99146.94
2023-03-08T15:58:40.884Z,99146.31
2023-03-08T16:01:07.864Z,99153.22
2023-03-08T16:03:35.351Z,99128.31
2023-03-08T16:06:03.260Z,99141.81
2023-03-08T16:08:30.590Z,99134.03
2023-03-08T16:11:03.626Z,99135.31
2023-03-08T16:13:31.101Z,99141.91
2023-03-08T16:16:01.006Z,99142.06
2023-03-08T16:18:30.389Z,99135.88
2023-03-08T16:20:58.878Z,99148.00
2023-03-08T16:23:26.635Z,99146.41
2023-03-08T16:26:15.889Z,99143.91
2023-03-08T16:28:46.280Z,99134.75
2023-03-08T16:31:14.514Z,99133.28
2023-03-08T16:33:41.472Z,99132.16
2023-03-08T16:36:08.873Z,99143.31
2023-03-08T16:38:35.936Z,99137.94
2023-03-08T16:41:12.629Z,99136.91
2023-03-08T16:43:49.242Z,99142.19
2023-03-08T16:46:22.840Z,99140.59
2023-03-08T16:48:53.804Z,99133.19
2023-03-08T16:51:24.385Z,99128.72
2023-03-08T16:53:51.443Z,99127.34
2023-03-08T16:56:28.403Z,99131.59
2023-03-08T16:58:59.076Z,99134.94
2023-03-08T17:01:26.601Z,99116.53
2023-03-08T17:03:54.737Z,99120.78
2023-03-08T17:06:26.828Z,99121.13
2023-03-08T17:08:53.796Z,99121.25
2023-03-08T17:11:25.106Z,99120.13
2023-03-08T17:13:55.511Z,99119.66
2023-03-08T17:16:31.074Z,99129.94
2023-03-08T17:19:00.402Z,99132.78
2023-03-08T17:21:28.455Z,99123.47
2023-03-08T17:23:55.853Z,99122.31
2023-03-08T17:26:23.858Z,99121.25
2023-03-08T17:28:53.235Z,99122.63
2023-03-08T17:31:22.564Z,99119.19
2023-03-08T17:33:49.853Z,99118.63
2023-03-08T17:36:16.889Z,99123.13
2023-03-08T17:38:44.275Z,99116.44
2023-03-08T17:41:15.463Z,99129.31
2023-03-08T17:43:42.686Z,99127.69
2023-03-08T17:46:18.286Z,99132.75
2023-03-08T17:48:45.726Z,99126.56
2023-03-08T17:51:16.628Z,99122.97
2023-03-08T17:53:45.369Z,99124.56
2023-03-08T17:56:22.538Z,99108.34
2023-03-08T17:58:49.770Z,99108.91
2023-03-08T18:01:20.738Z,99111.00
2023-03-08T18:03:48.714Z,99110.75
2023-03-08T18:06:33.701Z,99101.13
2023-03-08T18:09:06.361Z,99107.78
2023-03-08T18:11:37.869Z,99090.06
2023-03-08T18:14:14.398Z,99107.53
2023-03-08T18:16:42.549Z,99105.84
2023-03-08T18:19:11.436Z,99102.41
2023-03-08T18:21:41.144Z,99100.56
2023-03-08T18:24:13.520Z,99105.84
2023-03-08T18:26:40.668Z,99108.94
2023-03-08T18:29:07.746Z,99118.16
2023-03-08T18:31:36.965Z,99120.00
2023-03-08T18:34:04.701Z,99133.94
2023-03-08T18:36:32.340Z,99121.28
2023-03-08T18:38:59.479Z,99135.09
2023-03-08T18:41:29.561Z,99136.16
2023-03-08T18:43:58.943Z,99128.91
2023-03-08T18:46:30.238Z,99136.84
2023-03-08T18:49:11.456Z,99135.25
2023-03-08T18:51:40.106Z,99130.19
2023-03-08T18:54:09.260Z,99124.31
2023-03-08T18:56:36.349Z,99128.25
2023-03-08T18:59:05.882Z,99132.50
2023-03-08T19:01:33.761Z,99142.28
2023-03-08T19:04:06.960Z,99129.28
2023-03-08T19:06:36.767Z,99113.41
2023-03-08T19:09:16.077Z,99121.69
2023-03-08T19:11:43.102Z,99128.00
2023-03-08T19:14:12.135Z,99116.84
2023-03-08T19:16:39.349Z,99104.31
2023-03-08T19:19:11.294Z,99094.06
2023-03-08T19:21:42.385Z,99093.25
2023-03-08T19:24:17.544Z,99100.41
2023-03-08T19:26:51.131Z,99106.72
2023-03-08T19:29:27.724Z,99106.81
2023-03-08T19:32:06.657Z,99099.34
2023-03-08T19:34:37.427Z,99094.53
2023-03-08T19:37:06.166Z,99101.75
2023-03-08T19:39:37.249Z,99100.41
2023-03-08T19:42:08.494Z,99097.19
2023-03-08T19:44:35.697Z,99084.03
2023-03-08T19:47:04.541Z,99092.53
2023-03-08T19:49:34.813Z,99082.66
2023-03-08T19:52:05.259Z,99084.50
2023-03-08T19:54:32.675Z,99082.81
2023-03-08T19:57:01.138Z,99088.44
2023-03-08T19:59:28.400Z,99089.94
2023-03-08T20:01:56.348Z,99088.91
2023-03-08T20:04:24.325Z,99095.72
2023-03-08T20:06:52.099Z,99087.78
2023-03-08T20:09:24.116Z,99087.78
2023-03-08T20:11:57.505Z,99085.38
2023-03-08T20:14:27.110Z,99073.41
2023-03-08T20:16:54.988Z,99085.13
2023-03-08T20:19:22.179Z,99080.63
2023-03-08T20:21:49.246Z,99081.22
2023-03-08T20:24:18.457Z,99084.88
2023-03-08T20:26:46.222Z,99081.44
2023-03-08T20:29:13.795Z,99087.78
2023-03-08T20:31:41.520Z,99072.38
2023-03-08T20:34:08.764Z,99083.75
2023-03-08T20:36:36.934Z,99092.28
2023-03-08T20:39:04.023Z,99101.69
2023-03-08T20:41:31.040Z,99079.44
2023-03-08T20:43:58.103Z,99078.88
2023-03-08T20:46:31.025Z,99078.41
2023-03-08T20:48:58.494Z,99081.63
2023-03-08T20:51:25.780Z,99083.81
2023-03-08T20:53:54.923Z,99084.84
2023-03-08T20:56:24.380Z,99086.69
2023-03-08T20:58:54.447Z,99097.28
2023-03-08T21:01:29.046Z,99084.59
2023-03-08T21:03:56.045Z,99078.66
2023-03-08T21:06:27.029Z,99094.88
2023-03-08T21:08:54.893Z,99089.00
2023-03-08T21:11:22.702Z,99085.78
2023-03-08T21:13:51.854Z,99084.19
2023-03-08T21:16:21.467Z,99072.56
2023-03-08T21:18:54.332Z,99078.66
2023-03-08T21:21:34.179Z,99073.91
2023-03-08T21:24:07.893Z,99084.75
2023-03-08T21:26:35.188Z,99084.19
2023-03-08T21:29:06.522Z,99077.53
2023-03-08T21:31:37.723Z,99093.16
2023-03-08T21:34:06.698Z,99076.25
2023-03-08T21:36:34.961Z,99082.34
2023-03-08T21:39:02.010Z,99076.25
2023-03-08T21:41:32.678Z,99062.34
2023-03-08T21:44:03.346Z,99069.00
2023-03-08T21:46:30.357Z,99092.94
2023-03-08T21:48:57.748Z,99091.56
2023-03-08T21:51:25.002Z,99078.66
2023-03-08T21:53:52.010Z,99089.81
2023-03-08T21:56:19.662Z,99084.03
2023-03-08T21:58:46.938Z,99074.16
2023-03-08T22:01:40.538Z,99076.91
2023-03-08T22:04:07.688Z,99076.09
2023-03-08T22:06:34.721Z,99082.19
2023-03-08T22:09:02.229Z,99082.19
2023-03-08T22:11:29.270Z,99073.19
2023-03-08T22:13:59.722Z,99077.22
2023-03-08T22:16:28.717Z,99085.97
2023-03-08T22:18:59.175Z,99083.09
2023-03-08T22:21:27.586Z,99086.06
2023-03-08T22:23:58.446Z,99077.88
2023-03-08T22:26:27.644Z,99083.97
2023-03-08T22:28:55.342Z,99081.09
2023-03-08T22:31:25.620Z,99069.13
2023-03-08T22:33:53.157Z,99077.16
2023-03-08T22:36:21.797Z,99068.41
2023-03-08T22:38:49.609Z,99072.09
2023-03-08T22:41:21.695Z,99067.28
2023-03-08T22:43:49.813Z,99065.44
2023-03-08T22:46:24.537Z,99062.78
2023-03-08T22:48:53.240Z,99069.94
2023-03-08T22:51:21.721Z,99057.50
2023-03-08T22:53:49.577Z,99035.97
2023-03-08T22:56:26.432Z,99043.44
2023-03-08T22:58:54.028Z,99046.56
2023-03-08T23:01:23.818Z,99031.16
2023-03-08T23:03:55.007Z,99043.13
2023-03-08T23:06:23.106Z,99032.91
2023-03-08T23:08:50.559Z,99033.56
2023-03-08T23:11:17.605Z,99030.34
2023-03-08T23:13:44.599Z,99026.34
2023-03-08T23:16:16.684Z,99028.50
2023-03-08T23:18:44.639Z,99027.63
2023-03-08T23:21:15.427Z,99022.56
2023-03-08T23:23:43.196Z,99017.03
2023-03-08T23:26:20.817Z,99002.66
2023-03-08T23:28:57.987Z,98997.13
2023-03-08T23:31:28.750Z,98991.84
2023-03-08T23:33:56.981Z,98992.31
2023-03-08T23:36:27.546Z,99013.81
2023-03-08T23:38:55.285Z,99014.06
2023-03-08T23:41:22.279Z,99009.00
2023-03-08T23:43:49.392Z,98994.16
2023-03-08T23:46:19.213Z,98983.81
2023-03-08T23:48:47.751Z,98972.41
2023-03-08T23:51:19.188Z,98982.44
2023-03-08T23:53:49.884Z,98983.41
2023-03-08T23:56:37.508Z,98976.59
2023-03-08T23:59:18.442Z,98989.50
